sensor_id;sensor_type;location;lat;lon;timestamp;temperature;humidity
69999;DHT22;57339;52.156;5.372;2024-03-08T00:00:27;4.00;99.90
69999;DHT22;57339;52.156;5.372;2024-03-08T00:02:54;4.00;99.90
69999;DHT22;57339;52.156;5.372;2024-03-08T00:05:21;3.90;99.90
69999;DHT22;57339;52.156;5.372;2024-03-08T00:07:48;3.90;99.90
69999;DHT22;57339;52.156;5.372;2024-03-08T00:10:15;3.90;99.90
69999;DHT22;57339;52.156;5.372;2024-03-08T00:12:44;3.90;99.90
69999;DHT22;57339;52.156;5.372;2024-03-08T00:15:17;3.80;99.90
69999;DHT22;57339;52.156;5.372;2024-03-08T00:17:46;3.80;99.90
69999;DHT22;57339;52.156;5.372;2024-03-08T00:20:13;3.80;99.90
69999;DHT22;57339;52.156;5.372;2024-03-08T00:22:41;3.70;99.90
69999;DHT22;57339;52.156;5.372;2024-03-08T00:25:08;3.70;99.90
69999;DHT22;57339;52.156;5.372;2024-03-08T00:27:36;3.70;99.90
69999;DHT22;57339;52.156;5.372;2024-03-08T00:30:04;3.70;99.90
69999;DHT22;57339;52.156;5.372;2024-03-08T00:32:32;3.70;99.90
69999;DHT22;57339;52.156;5.372;2024-03-08T00:35:00;3.60;99.90
69999;DHT22;57339;52.156;5.372;2024-03-08T00:37:30;3.60;99.90
69999;DHT22;57339;52.156;5.372;2024-03-08T00:39:58;3.60;99.90
69999;DHT22;57339;52.156;5.372;2024-03-08T00:42:25;3.60;99.90
69999;DHT22;57339;52.156;5.372;2024-03-08T00:44:52;3.50;99.90
69999;DHT22;57339;52.156;5.372;2024-03-08T00:47:19;3.50;99.90
69999;DHT22;57339;52.156;5.372;2024-03-08T00:49:46;3.50;99.90
69999;DHT22;57339;52.156;5.372;2024-03-08T00:52:14;3.50;99.90
69999;DHT22;57339;52.156;5.372;2024-03-08T00:54:41;3.50;99.90
69999;DHT22;57339;52.156;5.372;2024-03-08T00:57:08;3.50;99.90
69999;DHT22;57339;52.156;5.372;2024-03-08T00:59:38;3.40;99.90
69999;DHT22;57339;52.156;5.372;2024-03-08T01:02:05;3.40;99.90
69999;DHT22;57339;52.156;5.372;2024-03-08T01:04:32;3.40;99.90
69999;DHT22;57339;52.156;5.372;2024-03-08T01:07:00;3.40;99.90
69999;DHT22;57339;52.156;5.372;2024-03-08T01:09:28;3.30;99.90
69999;DHT22;57339;52.156;5.372;2024-03-08T01:11:55;3.30;99.90
69999;DHT22;57339;52.156;5.372;2024-03-08T01:14:23;3.30;99.90
69999;DHT22;57339;52.156;5.372;2024-03-08T01:16:51;3.30;99.90
69999;DHT22;57339;52.156;5.372;2024-03-08T01:19:18;3.30;99.90
69999;DHT22;57339;52.156;5.372;2024-03-08T01:21:45;3.30;99.90
69999;DHT22;57339;52.156;5.372;2024-03-08T01:24:12;3.30;99.90
69999;DHT22;57339;52.156;5.372;2024-03-08T01:26:39;3.20;99.90
69999;DHT22;57339;52.156;5.372;2024-03-08T01:29:05;3.20;99.90
69999;DHT22;57339;52.156;5.372;2024-03-08T01:31:33;3.20;99.90
69999;DHT22;57339;52.156;5.372;2024-03-08T01:34:00;3.10;99.90
69999;DHT22;57339;52.156;5.372;2024-03-08T01:36:27;3.10;99.90
69999;DHT22;57339;52.156;5.372;2024-03-08T01:38:54;3.10;99.90
69999;DHT22;57339;52.156;5.372;2024-03-08T01:41:21;3.10;99.90
69999;DHT22;57339;52.156;5.372;2024-03-08T01:43:48;3.10;99.90
69999;DHT22;57339;52.156;5.372;2024-03-08T01:46:19;3.10;99.90
69999;DHT22;57339;52.156;5.372;2024-03-08T01:48:47;3.00;99.90
69999;DHT22;57339;52.156;5.372;2024-03-08T01:51:15;3.00;99.90
69999;DHT22;57339;52.156;5.372;2024-03-08T01:53:44;2.90;99.90
69999;DHT22;57339;52.156;5.372;2024-03-08T01:56:13;2.90;99.90
69999;DHT22;57339;52.156;5.372;2024-03-08T01:58:44;2.90;99.90
69999;DHT22;57339;52.156;5.372;2024-03-08T02:01:12;2.90;99.90
69999;DHT22;57339;52.156;5.372;2024-03-08T02:03:39;2.90;99.90
69999;DHT22;57339;52.156;5.372;2024-03-08T02:06:06;2.80;99.90
69999;DHT22;57339;52.156;5.372;2024-03-08T02:08:33;2.80;99.90
69999;DHT22;57339;52.156;5.372;2024-03-08T02:11:00;2.80;99.90
69999;DHT22;57339;52.156;5.372;2024-03-08T02:13:27;2.80;99.90
69999;DHT22;57339;52.156;5.372;2024-03-08T02:15:58;2.80;99.90
69999;DHT22;57339;52.156;5.372;2024-03-08T02:18:26;2.70;99.90
69999;DHT22;57339;52.156;5.372;2024-03-08T02:20:55;2.70;99.90
69999;DHT22;57339;52.156;5.372;2024-03-08T02:23:23;2.70;99.90
69999;DHT22;57339;52.156;5.372;2024-03-08T02:25:50;2.70;99.90
69999;DHT22;57339;52.156;5.372;2024-03-08T02:28:18;2.70;99.90
69999;DHT22;57339;52.156;5.372;2024-03-08T02:30:45;2.60;99.90
69999;DHT22;57339;52.156;5.372;2024-03-08T02:33:17;2.60;99.90
69999;DHT22;57339;52.156;5.372;2024-03-08T02:35:45;2.60;99.90
69999;DHT22;57339;52.156;5.372;2024-03-08T02:38:14;2.60;99.90
69999;DHT22;57339;52.156;5.372;2024-03-08T02:40:42;2.60;99.90
69999;DHT22;57339;52.156;5.372;2024-03-08T02:43:10;2.60;99.90
69999;DHT22;57339;52.156;5.372;2024-03-08T02:45:37;2.60;99.90
69999;DHT22;57339;52.156;5.372;2024-03-08T02:48:04;2.50;99.90
69999;DHT22;57339;52.156;5.372;2024-03-08T02:50:32;2.50;99.90
69999;DHT22;57339;52.156;5.372;2024-03-08T02:53:00;2.50;99.90
69999;DHT22;57339;52.156;5.372;2024-03-08T02:55:27;2.50;99.90
69999;DHT22;57339;52.156;5.372;2024-03-08T02:57:54;2.50;99.90
69999;DHT22;57339;52.156;5.372;2024-03-08T03:00:21;2.50;99.90
69999;DHT22;57339;52.156;5.372;2024-03-08T03:02:49;2.40;99.90
69999;DHT22;57339;52.156;5.372;2024-03-08T03:05:16;2.40;99.90
69999;DHT22;57339;52.156;5.372;2024-03-08T03:07:43;2.40;99.90
69999;DHT22;57339;52.156;5.372;2024-03-08T03:10:10;2.40;99.90
69999;DHT22;57339;52.156;5.372;2024-03-08T03:12:37;2.30;99.90
69999;DHT22;57339;52.156;5.372;2024-03-08T03:15:05;2.30;99.90
69999;DHT22;57339;52.156;5.372;2024-03-08T03:17:32;2.30;99.90
69999;DHT22;57339;52.156;5.372;2024-03-08T03:20:00;2.30;99.90
69999;DHT22;57339;52.156;5.372;2024-03-08T03:22:27;2.30;99.90
69999;DHT22;57339;52.156;5.372;2024-03-08T03:24:53;2.30;99.90
69999;DHT22;57339;52.156;5.372;2024-03-08T03:27:20;2.20;99.90
69999;DHT22;57339;52.156;5.372;2024-03-08T03:29:47;2.20;99.90
69999;DHT22;57339;52.156;5.372;2024-03-08T03:32:14;2.20;99.90
69999;DHT22;57339;52.156;5.372;2024-03-08T03:34:41;2.20;99.90
69999;DHT22;57339;52.156;5.372;2024-03-08T03:37:08;2.20;99.90
69999;DHT22;57339;52.156;5.372;2024-03-08T03:39:35;2.20;99.90
69999;DHT22;57339;52.156;5.372;2024-03-08T03:42:02;2.20;99.90
69999;DHT22;57339;52.156;5.372;2024-03-08T03:44:30;2.10;99.90
69999;DHT22;57339;52.156;5.372;2024-03-08T03:46:57;2.10;99.90
69999;DHT22;57339;52.156;5.372;2024-03-08T03:49:24;2.10;99.90
69999;DHT22;57339;52.156;5.372;2024-03-08T03:51:51;2.10;99.90
69999;DHT22;57339;52.156;5.372;2024-03-08T03:54:17;2.10;99.90
69999;DHT22;57339;52.156;5.372;2024-03-08T03:56:44;2.10;99.90
69999;DHT22;57339;52.156;5.372;2024-03-08T03:59:11;2.10;99.90
69999;DHT22;57339;52.156;5.372;2024-03-08T04:01:42;2.10;99.90
69999;DHT22;57339;52.156;5.372;2024-03-08T04:04:09;2.10;99.90
69999;DHT22;57339;52.156;5.372;2024-03-08T04:06:36;2.10;99.90
69999;DHT22;57339;52.156;5.372;2024-03-08T04:09:02;2.20;99.90
69999;DHT22;57339;52.156;5.372;2024-03-08T04:11:31;2.20;99.90
69999;DHT22;57339;52.156;5.372;2024-03-08T04:13:58;2.20;99.90
69999;DHT22;57339;52.156;5.372;2024-03-08T04:16:24;2.10;99.90
69999;DHT22;57339;52.156;5.372;2024-03-08T04:18:52;2.10;99.90
69999;DHT22;57339;52.156;5.372;2024-03-08T04:21:19;2.20;99.90
69999;DHT22;57339;52.156;5.372;2024-03-08T04:23:46;2.20;99.90
69999;DHT22;57339;52.156;5.372;2024-03-08T04:26:13;2.20;99.90
69999;DHT22;57339;52.156;5.372;2024-03-08T04:28:41;2.20;99.90
69999;DHT22;57339;52.156;5.372;2024-03-08T04:31:08;2.20;99.90
69999;DHT22;57339;52.156;5.372;2024-03-08T04:33:36;2.20;99.90
69999;DHT22;57339;52.156;5.372;2024-03-08T04:36:03;2.20;99.90
69999;DHT22;57339;52.156;5.372;2024-03-08T04:38:31;2.10;99.90
69999;DHT22;57339;52.156;5.372;2024-03-08T04:40:58;2.10;99.90
69999;DHT22;57339;52.156;5.372;2024-03-08T04:43:25;2.10;99.90
69999;DHT22;57339;52.156;5.372;2024-03-08T04:45:53;2.10;99.90
69999;DHT22;57339;52.156;5.372;2024-03-08T04:48:20;2.10;99.90
69999;DHT22;57339;52.156;5.372;2024-03-08T04:50:46;2.10;99.90
69999;DHT22;57339;52.156;5.372;2024-03-08T04:53:13;2.10;99.90
69999;DHT22;57339;52.156;5.372;2024-03-08T04:55:40;2.10;99.90
69999;DHT22;57339;52.156;5.372;2024-03-08T04:58:07;2.10;99.90
69999;DHT22;57339;52.156;5.372;2024-03-08T05:00:34;2.20;99.90
69999;DHT22;57339;52.156;5.372;2024-03-08T05:03:03;2.10;99.90
69999;DHT22;57339;52.156;5.372;2024-03-08T05:05:31;2.10;99.90
69999;DHT22;57339;52.156;5.372;2024-03-08T05:07:58;2.10;99.90
69999;DHT22;57339;52.156;5.372;2024-03-08T05:10:25;2.10;99.90
69999;DHT22;57339;52.156;5.372;2024-03-08T05:12:52;2.10;99.90
69999;DHT22;57339;52.156;5.372;2024-03-08T05:15:23;2.10;99.90
69999;DHT22;57339;52.156;5.372;2024-03-08T05:17:50;2.10;99.90
69999;DHT22;57339;52.156;5.372;2024-03-08T05:20:17;2.10;99.90
69999;DHT22;57339;52.156;5.372;2024-03-08T05:22:44;2.10;99.90
69999;DHT22;57339;52.156;5.372;2024-03-08T05:25:11;2.10;99.90
69999;DHT22;57339;52.156;5.372;2024-03-08T05:27:38;2.10;99.90
69999;DHT22;57339;52.156;5.372;2024-03-08T05:30:08;2.10;99.90
69999;DHT22;57339;52.156;5.372;2024-03-08T05:32:38;2.00;99.90
69999;DHT22;57339;52.156;5.372;2024-03-08T05:35:06;2.00;99.90
69999;DHT22;57339;52.156;5.372;2024-03-08T05:37:33;2.00;99.90
69999;DHT22;57339;52.156;5.372;2024-03-08T05:40:00;2.00;99.90
69999;DHT22;57339;52.156;5.372;2024-03-08T05:42:27;2.00;99.90
69999;DHT22;57339;52.156;5.372;2024-03-08T05:44:54;2.00;99.90
69999;DHT22;57339;52.156;5.372;2024-03-08T05:47:21;1.90;99.90
69999;DHT22;57339;52.156;5.372;2024-03-08T05:49:48;2.00;99.90
69999;DHT22;57339;52.156;5.372;2024-03-08T05:52:14;1.90;99.90
69999;DHT22;57339;52.156;5.372;2024-03-08T05:54:41;1.90;99.90
69999;DHT22;57339;52.156;5.372;2024-03-08T05:57:08;1.90;99.90
69999;DHT22;57339;52.156;5.372;2024-03-08T05:59:35;1.90;99.90
69999;DHT22;57339;52.156;5.372;2024-03-08T06:02:02;1.90;99.90
69999;DHT22;57339;52.156;5.372;2024-03-08T06:04:29;1.90;99.90
69999;DHT22;57339;52.156;5.372;2024-03-08T06:06:56;1.90;99.90
69999;DHT22;57339;52.156;5.372;2024-03-08T06:09:23;1.90;99.90
69999;DHT22;57339;52.156;5.372;2024-03-08T06:11:53;1.90;99.90
69999;DHT22;57339;52.156;5.372;2024-03-08T06:14:21;1.80;99.90
69999;DHT22;57339;52.156;5.372;2024-03-08T06:16:48;1.80;99.90
69999;DHT22;57339;52.156;5.372;2024-03-08T06:19:15;1.80;99.90
69999;DHT22;57339;52.156;5.372;2024-03-08T06:21:41;1.80;99.90
69999;DHT22;57339;52.156;5.372;2024-03-08T06:24:09;1.80;99.90
69999;DHT22;57339;52.156;5.372;2024-03-08T06:26:36;1.80;99.90
69999;DHT22;57339;52.156;5.372;2024-03-08T06:29:05;1.80;99.90
69999;DHT22;57339;52.156;5.372;2024-03-08T06:31:32;1.80;99.90
69999;DHT22;57339;52.156;5.372;2024-03-08T06:33:59;1.90;99.90
69999;DHT22;57339;52.156;5.372;2024-03-08T06:36:26;1.90;99.90
69999;DHT22;57339;52.156;5.372;2024-03-08T06:38:53;1.90;99.90
69999;DHT22;57339;52.156;5.372;2024-03-08T06:41:20;1.90;99.90
69999;DHT22;57339;52.156;5.372;2024-03-08T06:43:47;2.00;99.90
69999;DHT22;57339;52.156;5.372;2024-03-08T06:46:17;2.00;99.90
69999;DHT22;57339;52.156;5.372;2024-03-08T06:48:44;2.00;99.90
69999;DHT22;57339;52.156;5.372;2024-03-08T06:51:11;2.00;99.90
69999;DHT22;57339;52.156;5.372;2024-03-08T06:53:38;2.10;99.90
69999;DHT22;57339;52.156;5.372;2024-03-08T06:56:06;2.10;99.90
69999;DHT22;57339;52.156;5.372;2024-03-08T06:58:33;2.20;99.90
69999;DHT22;57339;52.156;5.372;2024-03-08T07:01:00;2.20;99.90
69999;DHT22;57339;52.156;5.372;2024-03-08T07:03:27;2.30;99.90
69999;DHT22;57339;52.156;5.372;2024-03-08T07:05:55;2.30;99.90
69999;DHT22;57339;52.156;5.372;2024-03-08T07:08:22;2.40;99.90
69999;DHT22;57339;52.156;5.372;2024-03-08T07:10:49;2.50;99.90
69999;DHT22;57339;52.156;5.372;2024-03-08T07:13:16;2.60;99.90
69999;DHT22;57339;52.156;5.372;2024-03-08T07:15:44;2.70;99.90
69999;DHT22;57339;52.156;5.372;2024-03-08T07:18:11;2.90;99.90
69999;DHT22;57339;52.156;5.372;2024-03-08T07:20:38;3.00;99.90
69999;DHT22;57339;52.156;5.372;2024-03-08T07:23:05;3.10;99.90
69999;DHT22;57339;52.156;5.372;2024-03-08T07:25:32;3.30;99.90
69999;DHT22;57339;52.156;5.372;2024-03-08T07:27:59;3.40;99.90
69999;DHT22;57339;52.156;5.372;2024-03-08T07:30:27;3.50;99.90
69999;DHT22;57339;52.156;5.372;2024-03-08T07:32:55;3.60;99.90
69999;DHT22;57339;52.156;5.372;2024-03-08T07:35:22;3.80;99.90
69999;DHT22;57339;52.156;5.372;2024-03-08T07:37:49;3.90;99.90
69999;DHT22;57339;52.156;5.372;2024-03-08T07:40:17;4.00;99.90
69999;DHT22;57339;52.156;5.372;2024-03-08T07:42:43;4.00;99.90
69999;DHT22;57339;52.156;5.372;2024-03-08T07:45:11;4.20;99.90
69999;DHT22;57339;52.156;5.372;2024-03-08T07:47:38;4.30;99.90
69999;DHT22;57339;52.156;5.372;2024-03-08T07:50:05;4.40;99.90
69999;DHT22;57339;52.156;5.372;2024-03-08T07:52:35;4.60;99.90
69999;DHT22;57339;52.156;5.372;2024-03-08T07:55:03;4.70;99.90
69999;DHT22;57339;52.156;5.372;2024-03-08T07:57:30;4.80;99.90
69999;DHT22;57339;52.156;5.372;2024-03-08T07:59:57;5.00;99.90
69999;DHT22;57339;52.156;5.372;2024-03-08T08:02:24;5.00;99.90
69999;DHT22;57339;52.156;5.372;2024-03-08T08:04:51;5.20;99.90
69999;DHT22;57339;52.156;5.372;2024-03-08T08:07:18;5.20;99.90
69999;DHT22;57339;52.156;5.372;2024-03-08T08:09:45;5.30;99.90
69999;DHT22;57339;52.156;5.372;2024-03-08T08:12:11;5.30;99.90
69999;DHT22;57339;52.156;5.372;2024-03-08T08:14:39;5.30;99.90
69999;DHT22;57339;52.156;5.372;2024-03-08T08:17:08;5.50;99.90
69999;DHT22;57339;52.156;5.372;2024-03-08T08:19:35;5.80;99.90
69999;DHT22;57339;52.156;5.372;2024-03-08T08:22:03;6.10;99.90
69999;DHT22;57339;52.156;5.372;2024-03-08T08:24:30;6.20;99.90
69999;DHT22;57339;52.156;5.372;2024-03-08T08:26:57;6.10;99.90
69999;DHT22;57339;52.156;5.372;2024-03-08T08:29:24;6.20;99.90
69999;DHT22;57339;52.156;5.372;2024-03-08T08:31:51;6.20;99.90
69999;DHT22;57339;52.156;5.372;2024-03-08T08:34:19;6.50;99.90
69999;DHT22;57339;52.156;5.372;2024-03-08T08:36:46;6.70;99.90
69999;DHT22;57339;52.156;5.372;2024-03-08T08:39:13;6.90;99.90
69999;DHT22;57339;52.156;5.372;2024-03-08T08:41:40;7.10;99.90
69999;DHT22;57339;52.156;5.372;2024-03-08T08:44:07;7.20;99.90
69999;DHT22;57339;52.156;5.372;2024-03-08T08:46:42;7.40;99.90
69999;DHT22;57339;52.156;5.372;2024-03-08T08:49:09;7.30;99.90
69999;DHT22;57339;52.156;5.372;2024-03-08T08:51:37;7.40;99.90
69999;DHT22;57339;52.156;5.372;2024-03-08T08:54:04;7.60;99.90
69999;DHT22;57339;52.156;5.372;2024-03-08T08:56:34;7.60;99.90
69999;DHT22;57339;52.156;5.372;2024-03-08T08:59:01;7.70;99.90
69999;DHT22;57339;52.156;5.372;2024-03-08T09:01:28;7.80;99.90
69999;DHT22;57339;52.156;5.372;2024-03-08T09:03:55;7.90;99.70
69999;DHT22;57339;52.156;5.372;2024-03-08T09:06:22;7.80;99.80
69999;DHT22;57339;52.156;5.372;2024-03-08T09:08:48;7.90;98.70
69999;DHT22;57339;52.156;5.372;2024-03-08T09:11:15;8.20;99.90
69999;DHT22;57339;52.156;5.372;2024-03-08T09:13:44;8.50;99.90
69999;DHT22;57339;52.156;5.372;2024-03-08T09:16:11;8.60;96.60
69999;DHT22;57339;52.156;5.372;2024-03-08T09:18:38;8.70;98.10
69999;DHT22;57339;52.156;5.372;2024-03-08T09:21:05;8.70;97.70
69999;DHT22;57339;52.156;5.372;2024-03-08T09:23:32;8.60;95.00
69999;DHT22;57339;52.156;5.372;2024-03-08T09:25:59;8.50;95.80
69999;DHT22;57339;52.156;5.372;2024-03-08T09:28:26;8.90;97.20
69999;DHT22;57339;52.156;5.372;2024-03-08T09:30:53;9.20;97.20
69999;DHT22;57339;52.156;5.372;2024-03-08T09:33:26;9.60;96.40
69999;DHT22;57339;52.156;5.372;2024-03-08T09:35:53;9.60;94.80
69999;DHT22;57339;52.156;5.372;2024-03-08T09:38:20;9.80;93.90
69999;DHT22;57339;52.156;5.372;2024-03-08T09:40:46;9.80;91.80
69999;DHT22;57339;52.156;5.372;2024-03-08T09:43:13;9.80;91.80
69999;DHT22;57339;52.156;5.372;2024-03-08T09:45:40;9.60;90.60
69999;DHT22;57339;52.156;5.372;2024-03-08T09:48:12;9.50;90.80
69999;DHT22;57339;52.156;5.372;2024-03-08T09:50:40;9.20;90.10
69999;DHT22;57339;52.156;5.372;2024-03-08T09:53:08;9.10;91.40
69999;DHT22;57339;52.156;5.372;2024-03-08T09:55:38;9.20;91.00
69999;DHT22;57339;52.156;5.372;2024-03-08T09:58:06;9.30;90.60
69999;DHT22;57339;52.156;5.372;2024-03-08T10:00:34;9.30;91.40
69999;DHT22;57339;52.156;5.372;2024-03-08T10:03:02;9.40;90.20
69999;DHT22;57339;52.156;5.372;2024-03-08T10:05:30;9.60;91.50
69999;DHT22;57339;52.156;5.372;2024-03-08T10:07:58;9.80;91.00
69999;DHT22;57339;52.156;5.372;2024-03-08T10:10:25;10.00;90.10
69999;DHT22;57339;52.156;5.372;2024-03-08T10:12:52;10.10;88.20
69999;DHT22;57339;52.156;5.372;2024-03-08T10:15:19;10.20;87.80
69999;DHT22;57339;52.156;5.372;2024-03-08T10:17:46;10.30;85.00
69999;DHT22;57339;52.156;5.372;2024-03-08T10:20:18;10.30;83.00
69999;DHT22;57339;52.156;5.372;2024-03-08T10:22:45;10.40;81.60
69999;DHT22;57339;52.156;5.372;2024-03-08T10:25:29;10.40;83.40
69999;DHT22;57339;52.156;5.372;2024-03-08T10:27:56;10.60;84.10
69999;DHT22;57339;52.156;5.372;2024-03-08T10:30:23;10.60;80.30
69999;DHT22;57339;52.156;5.372;2024-03-08T10:32:50;10.60;79.90
69999;DHT22;57339;52.156;5.372;2024-03-08T10:35:17;10.70;80.70
69999;DHT22;57339;52.156;5.372;2024-03-08T10:40:19;10.80;78.60
69999;DHT22;57339;52.156;5.372;2024-03-08T10:42:59;11.30;79.00
69999;DHT22;57339;52.156;5.372;2024-03-08T10:45:37;11.20;73.70
69999;DHT22;57339;52.156;5.372;2024-03-08T10:50:49;10.90;74.00
69999;DHT22;57339;52.156;5.372;2024-03-08T10:53:18;11.10;77.60
69999;DHT22;57339;52.156;5.372;2024-03-08T10:55:46;11.20;75.50
69999;DHT22;57339;52.156;5.372;2024-03-08T10:58:14;11.50;72.90
69999;DHT22;57339;52.156;5.372;2024-03-08T11:00:42;11.70;73.60
69999;DHT22;57339;52.156;5.372;2024-03-08T11:06:31;11.30;70.00
69999;DHT22;57339;52.156;5.372;2024-03-08T11:08:56;11.40;72.10
69999;DHT22;57339;52.156;5.372;2024-03-08T11:11:33;11.60;71.30
69999;DHT22;57339;52.156;5.372;2024-03-08T11:14:02;11.60;70.50
69999;DHT22;57339;52.156;5.372;2024-03-08T11:19:45;11.60;68.30
69999;DHT22;57339;52.156;5.372;2024-03-08T11:21:46;11.90;69.90
69999;DHT22;57339;52.156;5.372;2024-03-08T11:24:13;12.00;66.90
69999;DHT22;57339;52.156;5.372;2024-03-08T11:26:40;11.90;66.10
69999;DHT22;57339;52.156;5.372;2024-03-08T11:32:07;12.10;65.10
69999;DHT22;57339;52.156;5.372;2024-03-08T11:34:34;12.30;65.40
69999;DHT22;57339;52.156;5.372;2024-03-08T11:37:05;12.50;65.30
69999;DHT22;57339;52.156;5.372;2024-03-08T11:39:32;12.60;61.40
69999;DHT22;57339;52.156;5.372;2024-03-08T11:41:59;12.40;61.60
69999;DHT22;57339;52.156;5.372;2024-03-08T11:44:27;12.80;63.30
69999;DHT22;57339;52.156;5.372;2024-03-08T11:46:54;13.00;63.30
69999;DHT22;57339;52.156;5.372;2024-03-08T11:49:21;13.30;62.40
69999;DHT22;57339;52.156;5.372;2024-03-08T11:51:51;13.30;62.40
69999;DHT22;57339;52.156;5.372;2024-03-08T11:54:18;13.30;59.80
69999;DHT22;57339;52.156;5.372;2024-03-08T11:56:45;13.40;60.40
69999;DHT22;57339;52.156;5.372;2024-03-08T11:59:12;13.30;59.60
69999;DHT22;57339;52.156;5.372;2024-03-08T12:01:39;13.30;57.80
69999;DHT22;57339;52.156;5.372;2024-03-08T12:04:06;13.20;58.40
69999;DHT22;57339;52.156;5.372;2024-03-08T12:06:39;13.50;59.00
69999;DHT22;57339;52.156;5.372;2024-03-08T12:09:13;12.90;56.00
69999;DHT22;57339;52.156;5.372;2024-03-08T12:11:40;12.70;57.70
69999;DHT22;57339;52.156;5.372;2024-03-08T12:14:07;12.80;59.30
69999;DHT22;57339;52.156;5.372;2024-03-08T12:16:36;13.00;59.20
69999;DHT22;57339;52.156;5.372;2024-03-08T12:19:04;13.00;58.00
69999;DHT22;57339;52.156;5.372;2024-03-08T12:21:32;13.10;56.80
69999;DHT22;57339;52.156;5.372;2024-03-08T12:24:09;13.10;56.90
69999;DHT22;57339;52.156;5.372;2024-03-08T12:26:38;12.90;56.70
69999;DHT22;57339;52.156;5.372;2024-03-08T12:29:22;13.00;57.60
69999;DHT22;57339;52.156;5.372;2024-03-08T12:31:51;13.00;57.10
69999;DHT22;57339;52.156;5.372;2024-03-08T12:34:19;13.20;57.00
69999;DHT22;57339;52.156;5.372;2024-03-08T12:36:47;13.10;55.60
69999;DHT22;57339;52.156;5.372;2024-03-08T12:39:18;13.30;56.50
69999;DHT22;57339;52.156;5.372;2024-03-08T12:41:45;13.40;55.10
69999;DHT22;57339;52.156;5.372;2024-03-08T12:44:12;13.40;54.90
69999;DHT22;57339;52.156;5.372;2024-03-08T12:46:39;13.40;54.20
69999;DHT22;57339;52.156;5.372;2024-03-08T12:49:08;13.40;54.80
69999;DHT22;57339;52.156;5.372;2024-03-08T12:51:35;13.20;54.60
69999;DHT22;57339;52.156;5.372;2024-03-08T12:54:02;13.30;54.40
69999;DHT22;57339;52.156;5.372;2024-03-08T12:56:34;13.40;55.60
69999;DHT22;57339;52.156;5.372;2024-03-08T12:59:01;13.60;54.60
69999;DHT22;57339;52.156;5.372;2024-03-08T13:01:28;13.40;54.20
69999;DHT22;57339;52.156;5.372;2024-03-08T13:03:55;13.50;54.60
69999;DHT22;57339;52.156;5.372;2024-03-08T13:06:22;13.70;53.90
69999;DHT22;57339;52.156;5.372;2024-03-08T13:08:49;13.50;54.80
69999;DHT22;57339;52.156;5.372;2024-03-08T13:11:16;13.60;54.60
69999;DHT22;57339;52.156;5.372;2024-03-08T13:13:43;13.60;54.80
69999;DHT22;57339;52.156;5.372;2024-03-08T13:16:10;13.60;54.00
69999;DHT22;57339;52.156;5.372;2024-03-08T13:18:37;13.70;54.50
69999;DHT22;57339;52.156;5.372;2024-03-08T13:21:05;13.40;53.60
69999;DHT22;57339;52.156;5.372;2024-03-08T13:23:32;13.30;54.90
69999;DHT22;57339;52.156;5.372;2024-03-08T13:25:59;13.30;55.20
69999;DHT22;57339;52.156;5.372;2024-03-08T13:28:26;13.10;54.70
69999;DHT22;57339;52.156;5.372;2024-03-08T13:30:53;13.30;55.60
69999;DHT22;57339;52.156;5.372;2024-03-08T13:33:26;13.30;55.40
69999;DHT22;57339;52.156;5.372;2024-03-08T13:35:53;13.10;56.30
69999;DHT22;57339;52.156;5.372;2024-03-08T13:38:20;13.30;56.80
69999;DHT22;57339;52.156;5.372;2024-03-08T13:40:47;13.20;55.50
69999;DHT22;57339;52.156;5.372;2024-03-08T13:43:14;13.10;54.10
69999;DHT22;57339;52.156;5.372;2024-03-08T13:45:41;13.00;55.00
69999;DHT22;57339;52.156;5.372;2024-03-08T13:48:09;13.30;54.80
69999;DHT22;57339;52.156;5.372;2024-03-08T13:50:36;13.30;54.30
69999;DHT22;57339;52.156;5.372;2024-03-08T13:53:03;13.50;54.10
69999;DHT22;57339;52.156;5.372;2024-03-08T13:55:30;13.30;54.00
69999;DHT22;57339;52.156;5.372;2024-03-08T13:57:57;13.20;53.80
69999;DHT22;57339;52.156;5.372;2024-03-08T14:00:25;13.20;54.60
69999;DHT22;57339;52.156;5.372;2024-03-08T14:02:52;13.40;54.40
69999;DHT22;57339;52.156;5.372;2024-03-08T14:05:18;13.30;53.50
69999;DHT22;57339;52.156;5.372;2024-03-08T14:07:46;13.50;53.90
69999;DHT22;57339;52.156;5.372;2024-03-08T14:10:13;13.20;53.30
69999;DHT22;57339;52.156;5.372;2024-03-08T14:12:40;13.20;54.20
69999;DHT22;57339;52.156;5.372;2024-03-08T14:15:07;13.00;55.10
69999;DHT22;57339;52.156;5.372;2024-03-08T14:17:36;13.20;55.10
69999;DHT22;57339;52.156;5.372;2024-03-08T14:20:03;13.30;55.10
69999;DHT22;57339;52.156;5.372;2024-03-08T14:22:30;13.10;53.60
69999;DHT22;57339;52.156;5.372;2024-03-08T14:24:57;13.10;53.90
69999;DHT22;57339;52.156;5.372;2024-03-08T14:27:24;13.00;54.10
69999;DHT22;57339;52.156;5.372;2024-03-08T14:29:51;13.00;54.60
69999;DHT22;57339;52.156;5.372;2024-03-08T14:32:18;13.10;54.60
69999;DHT22;57339;52.156;5.372;2024-03-08T14:34:45;12.80;54.50
69999;DHT22;57339;52.156;5.372;2024-03-08T14:37:11;12.90;55.20
69999;DHT22;57339;52.156;5.372;2024-03-08T14:39:41;13.00;55.50
69999;DHT22;57339;52.156;5.372;2024-03-08T14:42:08;13.00;55.10
69999;DHT22;57339;52.156;5.372;2024-03-08T14:44:35;12.80;55.30
69999;DHT22;57339;52.156;5.372;2024-03-08T14:47:05;12.50;55.90
69999;DHT22;57339;52.156;5.372;2024-03-08T14:49:33;12.60;56.60
69999;DHT22;57339;52.156;5.372;2024-03-08T14:51:59;12.60;56.50
69999;DHT22;57339;52.156;5.372;2024-03-08T14:54:26;12.30;56.40
69999;DHT22;57339;52.156;5.372;2024-03-08T14:56:53;12.30;57.10
69999;DHT22;57339;52.156;5.372;2024-03-08T14:59:20;12.50;57.30
69999;DHT22;57339;52.156;5.372;2024-03-08T15:01:47;12.50;56.70
69999;DHT22;57339;52.156;5.372;2024-03-08T15:04:14;12.60;56.90
69999;DHT22;57339;52.156;5.372;2024-03-08T15:06:41;12.70;56.70
69999;DHT22;57339;52.156;5.372;2024-03-08T15:09:11;12.70;57.90
69999;DHT22;57339;52.156;5.372;2024-03-08T15:11:38;12.60;56.90
69999;DHT22;57339;52.156;5.372;2024-03-08T15:14:06;12.80;57.10
69999;DHT22;57339;52.156;5.372;2024-03-08T15:16:33;12.90;57.30
69999;DHT22;57339;52.156;5.372;2024-03-08T15:19:00;12.80;56.10
69999;DHT22;57339;52.156;5.372;2024-03-08T15:21:27;12.60;56.90
69999;DHT22;57339;52.156;5.372;2024-03-08T15:23:54;12.50;57.00
69999;DHT22;57339;52.156;5.372;2024-03-08T15:26:21;12.50;56.80
69999;DHT22;57339;52.156;5.372;2024-03-08T15:28:48;12.40;57.60
69999;DHT22;57339;52.156;5.372;2024-03-08T15:31:15;12.50;57.60
69999;DHT22;57339;52.156;5.372;2024-03-08T15:33:42;12.50;57.40
69999;DHT22;57339;52.156;5.372;2024-03-08T15:36:12;12.30;57.30
69999;DHT22;57339;52.156;5.372;2024-03-08T15:38:40;12.30;57.60
69999;DHT22;57339;52.156;5.372;2024-03-08T15:41:07;12.50;57.60
69999;DHT22;57339;52.156;5.372;2024-03-08T15:43:39;12.20;57.60
69999;DHT22;57339;52.156;5.372;2024-03-08T15:46:08;12.10;57.80
69999;DHT22;57339;52.156;5.372;2024-03-08T15:48:36;12.20;58.30
69999;DHT22;57339;52.156;5.372;2024-03-08T15:51:05;12.10;58.10
69999;DHT22;57339;52.156;5.372;2024-03-08T15:53:33;11.90;58.60
69999;DHT22;57339;52.156;5.372;2024-03-08T15:56:00;11.90;59.00